Flight Track Log - Related Links

Times and Time Zones

All times are in EST time to prevent confusion due to time zone crossing. See the KAL1338 flight status page for this flight to view local times or setup timezone preferences in your user account.

Time Position Orientation Groundspeed Altitude Reporting Facility
EST Latitude Longitude Course Direction KTS MPH feet Rate Location/Type
Thu 04:16:00 AM 35.1346 127.5287 346° North  Level Estimated
Thu 04:17:00 AM 35.2083 127.5069 346° North  Level Estimated
Thu 04:18:00 AM 35.2820 127.4851 346° North  Level Estimated
Thu 04:19:00 AM 35.3557 127.4633 346° North  Level Estimated
Thu 04:20:00 AM 35.4530 127.4344 346° North  Level Estimated
Thu 04:21:00 AM 35.5504 127.4054 346° North  Level Estimated
Thu 04:22:00 AM 35.6477 127.3763 346° North  Level Estimated
Thu 04:23:00 AM 35.7450 127.3472 346° North  Level Estimated
Thu 04:24:00 AM 35.8424 127.3180 346° North  Level Estimated
Thu 04:25:00 AM 35.9397 127.2887 346° North  Level Estimated
Thu 04:26:00 AM 36.0370 127.2594 346° North  Level Estimated
Thu 04:27:00 AM 36.1343 127.2299 346° North  Level Estimated
Thu 04:28:00 AM 36.2316 127.2004 346° North  Level Estimated
Thu 04:29:00 AM 36.3289 127.1709 346° North  Level Estimated
Thu 04:30:00 AM 36.4262 127.1413 346° North  Level Estimated
Thu 04:31:00 AM 36.5235 127.1115 346° North  Level Estimated
Thu 04:32:00 AM 36.6208 127.0817 346° North  Level Estimated
Thu 04:33:00 AM 36.7180 127.0519 346° North  Level Estimated
Thu 04:34:00 AM 36.8153 127.0219 346° North  Level Estimated
Thu 04:35:00 AM 36.9125 126.9919 346° North  Level Estimated
Thu 04:36:00 AM 37.0098 126.9618 346° North  Level Estimated
Thu 04:37:00 AM 37.1070 126.9317 346° North  Level Estimated
Thu 04:38:00 AM 37.2042 126.9014 346° North  Level Estimated
Thu 04:39:00 AM 37.3014 126.8711 346° North  Level Estimated
Thu 04:40:00 AM 37.3987 126.8407 346° North  Level Estimated
Thu 04:41:00 AM 37.4958 126.8102 346° North  Level Estimated
Thu 04:42:00 AM 37.5583 126.7906 346° North  Level Estimated
Thu 04:43:00 AM 37.5583 126.7906 288° West  Level Estimated
Thu 04:44:00 AM 37.5583 126.7906 288° West  Level Estimated
Thu 04:45:00 AM 37.5583 126.7906 288° West  Level Estimated
Thu 04:46:00 AM 37.5583 126.7906 288° West  Level Estimated
Thu 04:47:00 AM 37.5583 126.7906 288° West  Level Estimated
Thu 04:48:00 AM 37.5583 126.7906 288° West  Level Estimated
Thu 04:49:00 AM 37.5583 126.7906 288° West  Level Estimated
Thu 04:50:00 AM 37.5583 126.7906 288° West  Level Estimated
Thu 04:51:00 AM 37.5583 126.7906 288° West  Level Estimated
Thu 04:52:00 AM 37.5583 126.7906 288° West  Level Estimated
Thu 04:53:00 AM 37.5583 126.7906 288° West  Level Estimated
Thu 04:54:00 AM 37.5583 126.7906 288° West  Level Estimated
Thu 04:55:00 AM 37.5583 126.7906 288° West  Level Estimated

Login

Don't have an account? Register now (free) for customized features, flight alerts, and more!